sensor_id;sensor_type;location;lat;lon;timestamp;P1;durP1;ratioP1;P2;durP2;ratioP2
55190;SDS011;41070;50.360;18.742;2022-09-09T00:00:53;5.90;;;4.90;;
55190;SDS011;41070;50.360;18.742;2022-09-09T00:03:37;6.90;;;5.40;;
55190;SDS011;41070;50.360;18.742;2022-09-09T00:06:26;6.40;;;5.20;;
55190;SDS011;41070;50.360;18.742;2022-09-09T00:11:40;7.30;;;5.60;;
55190;SDS011;41070;50.360;18.742;2022-09-09T00:16:55;8.60;;;5.90;;
55190;SDS011;41070;50.360;18.742;2022-09-09T00:19:33;8.50;;;5.80;;
55190;SDS011;41070;50.360;18.742;2022-09-09T00:30:13;6.60;;;5.90;;
55190;SDS011;41070;50.360;18.742;2022-09-09T00:32:50;6.40;;;5.80;;
55190;SDS011;41070;50.360;18.742;2022-09-09T00:35:25;6.70;;;5.70;;
55190;SDS011;41070;50.360;18.742;2022-09-09T00:38:17;7.20;;;5.80;;
55190;SDS011;41070;50.360;18.742;2022-09-09T00:43:41;8.30;;;6.10;;
55190;SDS011;41070;50.360;18.742;2022-09-09T00:52:18;7.20;;;5.80;;
55190;SDS011;41070;50.360;18.742;2022-09-09T00:55:38;6.90;;;6.10;;
55190;SDS011;41070;50.360;18.742;2022-09-09T00:58:32;7.90;;;6.40;;
55190;SDS011;41070;50.360;18.742;2022-09-09T01:01:04;10.00;;;7.10;;
55190;SDS011;41070;50.360;18.742;2022-09-09T01:03:38;11.70;;;8.50;;
55190;SDS011;41070;50.360;18.742;2022-09-09T01:06:31;11.10;;;8.20;;
55190;SDS011;41070;50.360;18.742;2022-09-09T01:15:03;11.30;;;8.30;;
55190;SDS011;41070;50.360;18.742;2022-09-09T01:20:23;10.20;;;8.00;;
55190;SDS011;41070;50.360;18.742;2022-09-09T01:23:36;11.20;;;9.30;;
55190;SDS011;41070;50.360;18.742;2022-09-09T01:26:30;15.30;;;10.20;;
55190;SDS011;41070;50.360;18.742;2022-09-09T01:29:17;13.70;;;9.60;;
55190;SDS011;41070;50.360;18.742;2022-09-09T01:37:59;14.00;;;8.80;;
55190;SDS011;41070;50.360;18.742;2022-09-09T01:40:31;15.10;;;9.90;;
55190;SDS011;41070;50.360;18.742;2022-09-09T01:43:39;15.00;;;9.30;;
55190;SDS011;41070;50.360;18.742;2022-09-09T01:46:27;15.40;;;9.90;;
55190;SDS011;41070;50.360;18.742;2022-09-09T01:49:15;18.70;;;10.90;;
55190;SDS011;41070;50.360;18.742;2022-09-09T01:52:04;15.30;;;10.40;;
55190;SDS011;41070;50.360;18.742;2022-09-09T01:54:52;15.50;;;9.60;;
55190;SDS011;41070;50.360;18.742;2022-09-09T01:57:23;13.80;;;9.70;;
55190;SDS011;41070;50.360;18.742;2022-09-09T02:00:15;14.90;;;10.80;;
55190;SDS011;41070;50.360;18.742;2022-09-09T02:03:19;15.90;;;10.50;;
55190;SDS011;41070;50.360;18.742;2022-09-09T02:06:08;17.80;;;10.80;;
55190;SDS011;41070;50.360;18.742;2022-09-09T02:09:01;15.20;;;10.30;;
55190;SDS011;41070;50.360;18.742;2022-09-09T02:11:52;14.50;;;10.40;;
55190;SDS011;41070;50.360;18.742;2022-09-09T02:15:07;15.10;;;10.30;;
55190;SDS011;41070;50.360;18.742;2022-09-09T02:17:52;18.50;;;10.60;;
55190;SDS011;41070;50.360;18.742;2022-09-09T02:20:42;13.90;;;9.90;;
55190;SDS011;41070;50.360;18.742;2022-09-09T02:23:36;14.80;;;10.80;;
55190;SDS011;41070;50.360;18.742;2022-09-09T02:26:44;15.70;;;10.60;;
55190;SDS011;41070;50.360;18.742;2022-09-09T02:29:19;15.60;;;11.10;;
55190;SDS011;41070;50.360;18.742;2022-09-09T02:31:56;17.90;;;10.40;;
55190;SDS011;41070;50.360;18.742;2022-09-09T02:34:45;14.20;;;10.40;;
55190;SDS011;41070;50.360;18.742;2022-09-09T02:37:18;16.70;;;11.00;;
55190;SDS011;41070;50.360;18.742;2022-09-09T02:40:07;14.50;;;9.80;;
55190;SDS011;41070;50.360;18.742;2022-09-09T02:42:54;14.40;;;10.40;;
55190;SDS011;41070;50.360;18.742;2022-09-09T02:45:24;15.20;;;10.20;;
55190;SDS011;41070;50.360;18.742;2022-09-09T02:48:33;15.30;;;10.90;;
55190;SDS011;41070;50.360;18.742;2022-09-09T02:51:23;12.70;;;9.70;;
55190;SDS011;41070;50.360;18.742;2022-09-09T02:54:28;12.30;;;9.30;;
55190;SDS011;41070;50.360;18.742;2022-09-09T02:57:19;11.70;;;8.70;;
55190;SDS011;41070;50.360;18.742;2022-09-09T03:00:08;9.20;;;7.50;;
55190;SDS011;41070;50.360;18.742;2022-09-09T03:02:50;8.10;;;6.10;;
55190;SDS011;41070;50.360;18.742;2022-09-09T03:05:18;7.30;;;6.20;;
55190;SDS011;41070;50.360;18.742;2022-09-09T03:07:46;6.10;;;5.30;;
55190;SDS011;41070;50.360;18.742;2022-09-09T03:10:16;5.10;;;4.60;;
55190;SDS011;41070;50.360;18.742;2022-09-09T03:12:44;8.70;;;4.60;;
55190;SDS011;41070;50.360;18.742;2022-09-09T03:15:12;6.00;;;5.10;;
55190;SDS011;41070;50.360;18.742;2022-09-09T03:17:40;6.30;;;4.80;;
55190;SDS011;41070;50.360;18.742;2022-09-09T03:20:08;4.70;;;4.10;;
55190;SDS011;41070;50.360;18.742;2022-09-09T03:22:36;6.00;;;4.20;;
55190;SDS011;41070;50.360;18.742;2022-09-09T03:25:04;10.10;;;3.50;;
55190;SDS011;41070;50.360;18.742;2022-09-09T03:27:32;5.60;;;3.50;;
55190;SDS011;41070;50.360;18.742;2022-09-09T03:30:00;9.50;;;3.90;;
55190;SDS011;41070;50.360;18.742;2022-09-09T03:32:29;8.40;;;4.40;;
55190;SDS011;41070;50.360;18.742;2022-09-09T03:34:57;5.70;;;4.40;;
55190;SDS011;41070;50.360;18.742;2022-09-09T03:37:24;7.60;;;5.20;;
55190;SDS011;41070;50.360;18.742;2022-09-09T03:39:52;7.10;;;5.60;;
55190;SDS011;41070;50.360;18.742;2022-09-09T03:42:21;7.30;;;5.60;;
55190;SDS011;41070;50.360;18.742;2022-09-09T03:44:49;6.30;;;5.40;;
55190;SDS011;41070;50.360;18.742;2022-09-09T03:47:18;7.40;;;6.10;;
55190;SDS011;41070;50.360;18.742;2022-09-09T03:49:47;6.90;;;5.50;;
55190;SDS011;41070;50.360;18.742;2022-09-09T03:52:15;6.00;;;4.30;;
55190;SDS011;41070;50.360;18.742;2022-09-09T03:54:44;9.80;;;4.10;;
55190;SDS011;41070;50.360;18.742;2022-09-09T03:57:12;5.80;;;3.50;;
55190;SDS011;41070;50.360;18.742;2022-09-09T03:59:43;4.00;;;3.40;;
55190;SDS011;41070;50.360;18.742;2022-09-09T04:02:11;4.00;;;3.50;;
55190;SDS011;41070;50.360;18.742;2022-09-09T04:04:38;5.00;;;4.00;;
55190;SDS011;41070;50.360;18.742;2022-09-09T04:07:06;6.50;;;3.80;;
55190;SDS011;41070;50.360;18.742;2022-09-09T04:09:33;7.10;;;4.40;;
55190;SDS011;41070;50.360;18.742;2022-09-09T04:12:01;4.90;;;4.00;;
55190;SDS011;41070;50.360;18.742;2022-09-09T04:14:29;6.20;;;5.20;;
55190;SDS011;41070;50.360;18.742;2022-09-09T04:16:57;5.10;;;4.60;;
55190;SDS011;41070;50.360;18.742;2022-09-09T04:19:25;6.20;;;5.40;;
55190;SDS011;41070;50.360;18.742;2022-09-09T04:21:53;7.50;;;6.10;;
55190;SDS011;41070;50.360;18.742;2022-09-09T04:24:20;6.00;;;5.30;;
55190;SDS011;41070;50.360;18.742;2022-09-09T04:26:48;7.00;;;5.20;;
55190;SDS011;41070;50.360;18.742;2022-09-09T04:29:16;6.10;;;5.50;;
55190;SDS011;41070;50.360;18.742;2022-09-09T04:31:43;7.20;;;6.00;;
55190;SDS011;41070;50.360;18.742;2022-09-09T04:34:11;6.20;;;5.00;;
55190;SDS011;41070;50.360;18.742;2022-09-09T04:36:39;6.30;;;5.70;;
55190;SDS011;41070;50.360;18.742;2022-09-09T04:39:06;7.40;;;6.30;;
55190;SDS011;41070;50.360;18.742;2022-09-09T04:41:40;7.00;;;6.00;;
55190;SDS011;41070;50.360;18.742;2022-09-09T04:44:28;6.40;;;5.60;;
55190;SDS011;41070;50.360;18.742;2022-09-09T04:47:37;7.60;;;6.20;;
55190;SDS011;41070;50.360;18.742;2022-09-09T04:50:04;6.80;;;6.10;;
55190;SDS011;41070;50.360;18.742;2022-09-09T04:52:34;7.70;;;5.40;;
55190;SDS011;41070;50.360;18.742;2022-09-09T04:55:03;9.90;;;5.70;;
55190;SDS011;41070;50.360;18.742;2022-09-09T04:57:31;6.30;;;5.10;;
55190;SDS011;41070;50.360;18.742;2022-09-09T05:00:04;5.90;;;5.40;;
55190;SDS011;41070;50.360;18.742;2022-09-09T05:02:38;5.70;;;5.10;;
55190;SDS011;41070;50.360;18.742;2022-09-09T05:05:12;5.60;;;5.10;;
55190;SDS011;41070;50.360;18.742;2022-09-09T05:07:42;5.80;;;4.80;;
55190;SDS011;41070;50.360;18.742;2022-09-09T05:10:14;5.90;;;5.30;;
55190;SDS011;41070;50.360;18.742;2022-09-09T05:12:53;5.30;;;4.80;;
55190;SDS011;41070;50.360;18.742;2022-09-09T05:15:29;5.80;;;4.90;;
55190;SDS011;41070;50.360;18.742;2022-09-09T05:18:16;6.20;;;5.00;;
55190;SDS011;41070;50.360;18.742;2022-09-09T05:21:14;7.30;;;5.20;;
55190;SDS011;41070;50.360;18.742;2022-09-09T05:23:52;9.30;;;5.80;;
55190;SDS011;41070;50.360;18.742;2022-09-09T05:26:26;8.70;;;5.70;;
55190;SDS011;41070;50.360;18.742;2022-09-09T05:29:01;7.20;;;5.50;;
55190;SDS011;41070;50.360;18.742;2022-09-09T05:31:37;10.00;;;6.30;;
55190;SDS011;41070;50.360;18.742;2022-09-09T05:34:19;8.20;;;6.50;;
55190;SDS011;41070;50.360;18.742;2022-09-09T05:36:51;8.80;;;6.10;;
55190;SDS011;41070;50.360;18.742;2022-09-09T05:39:26;9.70;;;7.20;;
55190;SDS011;41070;50.360;18.742;2022-09-09T05:42:24;11.30;;;6.80;;
55190;SDS011;41070;50.360;18.742;2022-09-09T05:45:13;7.80;;;6.80;;
55190;SDS011;41070;50.360;18.742;2022-09-09T05:48:20;8.80;;;6.90;;
55190;SDS011;41070;50.360;18.742;2022-09-09T05:51:15;7.70;;;6.60;;
55190;SDS011;41070;50.360;18.742;2022-09-09T05:58:27;8.80;;;6.80;;
55190;SDS011;41070;50.360;18.742;2022-09-09T06:01:26;10.00;;;8.10;;
55190;SDS011;41070;50.360;18.742;2022-09-09T06:04:07;9.40;;;7.20;;
55190;SDS011;41070;50.360;18.742;2022-09-09T06:06:50;8.60;;;7.20;;
55190;SDS011;41070;50.360;18.742;2022-09-09T06:09:22;8.10;;;7.30;;
55190;SDS011;41070;50.360;18.742;2022-09-09T06:11:55;8.60;;;7.70;;
55190;SDS011;41070;50.360;18.742;2022-09-09T06:14:40;10.60;;;7.30;;
55190;SDS011;41070;50.360;18.742;2022-09-09T06:17:09;10.30;;;8.00;;
55190;SDS011;41070;50.360;18.742;2022-09-09T06:19:44;10.50;;;8.20;;
55190;SDS011;41070;50.360;18.742;2022-09-09T06:22:12;9.20;;;7.40;;
55190;SDS011;41070;50.360;18.742;2022-09-09T06:24:46;10.70;;;8.30;;
55190;SDS011;41070;50.360;18.742;2022-09-09T06:27:54;9.30;;;7.50;;
55190;SDS011;41070;50.360;18.742;2022-09-09T06:30:33;9.40;;;7.50;;
55190;SDS011;41070;50.360;18.742;2022-09-09T06:33:09;8.30;;;7.50;;
55190;SDS011;41070;50.360;18.742;2022-09-09T06:39:10;9.40;;;7.70;;
55190;SDS011;41070;50.360;18.742;2022-09-09T06:41:45;8.70;;;7.00;;
55190;SDS011;41070;50.360;18.742;2022-09-09T06:44:23;9.20;;;7.00;;
55190;SDS011;41070;50.360;18.742;2022-09-09T06:47:02;7.50;;;6.70;;
55190;SDS011;41070;50.360;18.742;2022-09-09T06:49:35;9.90;;;7.00;;
55190;SDS011;41070;50.360;18.742;2022-09-09T06:52:13;7.90;;;6.30;;
55190;SDS011;41070;50.360;18.742;2022-09-09T06:54:57;10.10;;;7.00;;
55190;SDS011;41070;50.360;18.742;2022-09-09T06:57:30;8.40;;;6.50;;
55190;SDS011;41070;50.360;18.742;2022-09-09T07:00:10;7.60;;;5.90;;
55190;SDS011;41070;50.360;18.742;2022-09-09T07:02:47;7.60;;;6.40;;
55190;SDS011;41070;50.360;18.742;2022-09-09T07:05:20;7.40;;;6.00;;
55190;SDS011;41070;50.360;18.742;2022-09-09T07:08:02;7.40;;;5.60;;
55190;SDS011;41070;50.360;18.742;2022-09-09T07:14:08;5.50;;;5.00;;
55190;SDS011;41070;50.360;18.742;2022-09-09T07:16:41;11.90;;;6.20;;
55190;SDS011;41070;50.360;18.742;2022-09-09T07:19:20;9.90;;;6.00;;
55190;SDS011;41070;50.360;18.742;2022-09-09T07:21:53;6.90;;;5.90;;
55190;SDS011;41070;50.360;18.742;2022-09-09T07:24:32;6.00;;;5.30;;
55190;SDS011;41070;50.360;18.742;2022-09-09T07:27:10;6.00;;;5.20;;
55190;SDS011;41070;50.360;18.742;2022-09-09T07:29:49;9.70;;;5.60;;
55190;SDS011;41070;50.360;18.742;2022-09-09T07:32:26;7.90;;;5.30;;
55190;SDS011;41070;50.360;18.742;2022-09-09T07:35:04;5.90;;;4.90;;
55190;SDS011;41070;50.360;18.742;2022-09-09T07:37:43;6.10;;;5.20;;
55190;SDS011;41070;50.360;18.742;2022-09-09T07:40:19;5.30;;;4.20;;
55190;SDS011;41070;50.360;18.742;2022-09-09T07:42:57;6.50;;;4.60;;
55190;SDS011;41070;50.360;18.742;2022-09-09T07:45:35;5.90;;;4.80;;
55190;SDS011;41070;50.360;18.742;2022-09-09T07:48:11;4.50;;;4.10;;
55190;SDS011;41070;50.360;18.742;2022-09-09T07:50:50;3.90;;;3.50;;
55190;SDS011;41070;50.360;18.742;2022-09-09T07:56:08;4.90;;;3.70;;
55190;SDS011;41070;50.360;18.742;2022-09-09T07:58:45;4.90;;;3.80;;
55190;SDS011;41070;50.360;18.742;2022-09-09T08:01:26;4.90;;;3.50;;
55190;SDS011;41070;50.360;18.742;2022-09-09T08:04:01;5.20;;;3.30;;
55190;SDS011;41070;50.360;18.742;2022-09-09T08:06:39;2.80;;;2.60;;
55190;SDS011;41070;50.360;18.742;2022-09-09T08:09:19;3.60;;;2.60;;
55190;SDS011;41070;50.360;18.742;2022-09-09T08:11:55;6.50;;;3.10;;
55190;SDS011;41070;50.360;18.742;2022-09-09T08:14:33;5.50;;;3.10;;
55190;SDS011;41070;50.360;18.742;2022-09-09T08:17:19;4.70;;;2.90;;
55190;SDS011;41070;50.360;18.742;2022-09-09T08:19:57;4.00;;;2.40;;
55190;SDS011;41070;50.360;18.742;2022-09-09T08:22:34;2.60;;;2.40;;
55190;SDS011;41070;50.360;18.742;2022-09-09T08:25:13;2.50;;;2.00;;
55190;SDS011;41070;50.360;18.742;2022-09-09T08:28:12;2.50;;;2.20;;
55190;SDS011;41070;50.360;18.742;2022-09-09T08:30:52;3.70;;;2.90;;
55190;SDS011;41070;50.360;18.742;2022-09-09T08:33:26;4.50;;;3.40;;
55190;SDS011;41070;50.360;18.742;2022-09-09T08:36:05;3.90;;;3.00;;
55190;SDS011;41070;50.360;18.742;2022-09-09T08:38:48;3.30;;;2.20;;
55190;SDS011;41070;50.360;18.742;2022-09-09T08:44:22;2.30;;;2.00;;
55190;SDS011;41070;50.360;18.742;2022-09-09T08:49:37;2.70;;;2.50;;
55190;SDS011;41070;50.360;18.742;2022-09-09T08:52:22;2.90;;;2.60;;
55190;SDS011;41070;50.360;18.742;2022-09-09T08:55:24;3.90;;;2.40;;
55190;SDS011;41070;50.360;18.742;2022-09-09T08:58:05;2.70;;;2.30;;
55190;SDS011;41070;50.360;18.742;2022-09-09T09:00:54;3.70;;;2.30;;
55190;SDS011;41070;50.360;18.742;2022-09-09T09:06:23;2.70;;;2.30;;
55190;SDS011;41070;50.360;18.742;2022-09-09T09:11:36;3.50;;;2.30;;
55190;SDS011;41070;50.360;18.742;2022-09-09T09:14:26;5.40;;;2.70;;
55190;SDS011;41070;50.360;18.742;2022-09-09T09:17:10;3.90;;;2.30;;
55190;SDS011;41070;50.360;18.742;2022-09-09T09:19:47;1.90;;;1.80;;
55190;SDS011;41070;50.360;18.742;2022-09-09T09:22:27;2.90;;;2.10;;
55190;SDS011;41070;50.360;18.742;2022-09-09T09:25:22;2.30;;;2.10;;
55190;SDS011;41070;50.360;18.742;2022-09-09T09:27:58;3.00;;;2.30;;
55190;SDS011;41070;50.360;18.742;2022-09-09T09:30:39;2.40;;;2.00;;
55190;SDS011;41070;50.360;18.742;2022-09-09T09:33:15;3.10;;;2.10;;
55190;SDS011;41070;50.360;18.742;2022-09-09T09:35:56;2.60;;;2.40;;
55190;SDS011;41070;50.360;18.742;2022-09-09T09:38:52;3.50;;;2.50;;
55190;SDS011;41070;50.360;18.742;2022-09-09T09:41:47;2.50;;;2.30;;
55190;SDS011;41070;50.360;18.742;2022-09-09T09:44:28;2.80;;;2.50;;
55190;SDS011;41070;50.360;18.742;2022-09-09T09:47:18;2.90;;;2.40;;
55190;SDS011;41070;50.360;18.742;2022-09-09T09:50:01;2.70;;;2.10;;
55190;SDS011;41070;50.360;18.742;2022-09-09T09:53:03;3.70;;;2.90;;
55190;SDS011;41070;50.360;18.742;2022-09-09T09:58:48;2.70;;;2.50;;
55190;SDS011;41070;50.360;18.742;2022-09-09T10:01:28;3.40;;;2.50;;
55190;SDS011;41070;50.360;18.742;2022-09-09T10:07:09;2.40;;;2.00;;
55190;SDS011;41070;50.360;18.742;2022-09-09T10:10:10;4.80;;;2.80;;
55190;SDS011;41070;50.360;18.742;2022-09-09T10:13:11;3.20;;;2.50;;
55190;SDS011;41070;50.360;18.742;2022-09-09T10:15:56;2.60;;;2.40;;
55190;SDS011;41070;50.360;18.742;2022-09-09T10:22:11;2.10;;;1.90;;
55190;SDS011;41070;50.360;18.742;2022-09-09T10:28:24;2.30;;;2.10;;
55190;SDS011;41070;50.360;18.742;2022-09-09T10:31:25;2.70;;;2.50;;
55190;SDS011;41070;50.360;18.742;2022-09-09T11:11:16;2.00;;;1.40;;
55190;SDS011;41070;50.360;18.742;2022-09-09T11:14:03;2.50;;;1.50;;
55190;SDS011;41070;50.360;18.742;2022-09-09T11:23:35;2.20;;;1.80;;
55190;SDS011;41070;50.360;18.742;2022-09-09T11:26:18;2.50;;;1.60;;
55190;SDS011;41070;50.360;18.742;2022-09-09T11:34:39;1.50;;;1.40;;
55190;SDS011;41070;50.360;18.742;2022-09-09T11:41:17;2.40;;;1.60;;
55190;SDS011;41070;50.360;18.742;2022-09-09T11:43:55;5.40;;;2.00;;
55190;SDS011;41070;50.360;18.742;2022-09-09T11:46:34;3.20;;;1.60;;
55190;SDS011;41070;50.360;18.742;2022-09-09T11:49:39;5.70;;;3.00;;
55190;SDS011;41070;50.360;18.742;2022-09-09T11:52:25;3.10;;;1.80;;
55190;SDS011;41070;50.360;18.742;2022-09-09T11:58:22;1.60;;;1.50;;
55190;SDS011;41070;50.360;18.742;2022-09-09T12:01:00;1.90;;;1.40;;
55190;SDS011;41070;50.360;18.742;2022-09-09T12:06:27;1.60;;;1.20;;
55190;SDS011;41070;50.360;18.742;2022-09-09T12:11:41;2.40;;;1.50;;
55190;SDS011;41070;50.360;18.742;2022-09-09T12:14:21;2.00;;;1.30;;
55190;SDS011;41070;50.360;18.742;2022-09-09T12:17:09;2.40;;;1.40;;
55190;SDS011;41070;50.360;18.742;2022-09-09T12:19:47;1.70;;;1.30;;
55190;SDS011;41070;50.360;18.742;2022-09-09T12:22:32;1.50;;;1.20;;
55190;SDS011;41070;50.360;18.742;2022-09-09T12:25:13;2.50;;;1.20;;
55190;SDS011;41070;50.360;18.742;2022-09-09T12:30:57;1.80;;;1.00;;
55190;SDS011;41070;50.360;18.742;2022-09-09T12:33:37;6.00;;;1.90;;
55190;SDS011;41070;50.360;18.742;2022-09-09T12:36:21;4.20;;;2.30;;
55190;SDS011;41070;50.360;18.742;2022-09-09T12:38:53;1.30;;;1.20;;
55190;SDS011;41070;50.360;18.742;2022-09-09T12:41:33;2.40;;;1.50;;
55190;SDS011;41070;50.360;18.742;2022-09-09T12:44:08;1.70;;;1.30;;
55190;SDS011;41070;50.360;18.742;2022-09-09T12:46:43;2.70;;;1.50;;
55190;SDS011;41070;50.360;18.742;2022-09-09T12:49:28;4.20;;;1.50;;
55190;SDS011;41070;50.360;18.742;2022-09-09T12:52:06;1.30;;;1.20;;
55190;SDS011;41070;50.360;18.742;2022-09-09T12:54:44;2.50;;;1.40;;
55190;SDS011;41070;50.360;18.742;2022-09-09T13:01:26;2.50;;;1.40;;
55190;SDS011;41070;50.360;18.742;2022-09-09T13:03:58;1.90;;;1.20;;
55190;SDS011;41070;50.360;18.742;2022-09-09T13:06:27;1.20;;;1.00;;
55190;SDS011;41070;50.360;18.742;2022-09-09T13:08:59;1.20;;;1.00;;
55190;SDS011;41070;50.360;18.742;2022-09-09T13:11:29;2.20;;;0.90;;
55190;SDS011;41070;50.360;18.742;2022-09-09T13:14:29;3.70;;;1.30;;
55190;SDS011;41070;50.360;18.742;2022-09-09T13:17:01;3.30;;;1.40;;
55190;SDS011;41070;50.360;18.742;2022-09-09T13:19:32;3.30;;;1.10;;
55190;SDS011;41070;50.360;18.742;2022-09-09T13:22:22;2.30;;;1.10;;
55190;SDS011;41070;50.360;18.742;2022-09-09T13:25:13;5.00;;;1.50;;
55190;SDS011;41070;50.360;18.742;2022-09-09T13:27:55;2.20;;;1.30;;
55190;SDS011;41070;50.360;18.742;2022-09-09T13:33:00;2.20;;;1.40;;
55190;SDS011;41070;50.360;18.742;2022-09-09T13:35:33;1.70;;;1.30;;
55190;SDS011;41070;50.360;18.742;2022-09-09T13:38:07;1.60;;;0.90;;
55190;SDS011;41070;50.360;18.742;2022-09-09T13:40:37;1.80;;;1.30;;
55190;SDS011;41070;50.360;18.742;2022-09-09T13:43:05;2.10;;;0.90;;
55190;SDS011;41070;50.360;18.742;2022-09-09T13:46:03;1.70;;;1.10;;
55190;SDS011;41070;50.360;18.742;2022-09-09T13:54:41;1.10;;;1.00;;
55190;SDS011;41070;50.360;18.742;2022-09-09T13:57:14;0.80;;;0.80;;
55190;SDS011;41070;50.360;18.742;2022-09-09T13:59:48;6.20;;;2.00;;
55190;SDS011;41070;50.360;18.742;2022-09-09T14:02:55;2.60;;;1.40;;
55190;SDS011;41070;50.360;18.742;2022-09-09T14:05:31;2.70;;;1.60;;
55190;SDS011;41070;50.360;18.742;2022-09-09T14:08:21;5.10;;;1.50;;
55190;SDS011;41070;50.360;18.742;2022-09-09T14:11:12;1.40;;;1.00;;
55190;SDS011;41070;50.360;18.742;2022-09-09T14:13:41;1.40;;;1.10;;
55190;SDS011;41070;50.360;18.742;2022-09-09T14:16:10;3.60;;;1.50;;
55190;SDS011;41070;50.360;18.742;2022-09-09T14:18:57;1.90;;;1.10;;
55190;SDS011;41070;50.360;18.742;2022-09-09T14:21:49;1.90;;;1.00;;
55190;SDS011;41070;50.360;18.742;2022-09-09T14:24:37;2.40;;;1.00;;
55190;SDS011;41070;50.360;18.742;2022-09-09T14:27:07;1.50;;;0.80;;
55190;SDS011;41070;50.360;18.742;2022-09-09T14:29:59;1.80;;;1.00;;
55190;SDS011;41070;50.360;18.742;2022-09-09T14:33:02;2.80;;;1.10;;
55190;SDS011;41070;50.360;18.742;2022-09-09T14:36:12;1.80;;;1.40;;
55190;SDS011;41070;50.360;18.742;2022-09-09T14:38:49;1.70;;;1.10;;
55190;SDS011;41070;50.360;18.742;2022-09-09T14:41:28;1.20;;;1.10;;
55190;SDS011;41070;50.360;18.742;2022-09-09T14:44:02;3.00;;;1.30;;
55190;SDS011;41070;50.360;18.742;2022-09-09T14:46:38;1.80;;;1.00;;
55190;SDS011;41070;50.360;18.742;2022-09-09T14:49:17;1.80;;;1.20;;
55190;SDS011;41070;50.360;18.742;2022-09-09T14:51:53;2.00;;;1.20;;
55190;SDS011;41070;50.360;18.742;2022-09-09T14:54:34;1.90;;;0.90;;
55190;SDS011;41070;50.360;18.742;2022-09-09T14:57:08;2.40;;;1.30;;
55190;SDS011;41070;50.360;18.742;2022-09-09T14:59:47;5.50;;;2.40;;
55190;SDS011;41070;50.360;18.742;2022-09-09T15:02:22;2.00;;;1.10;;
55190;SDS011;41070;50.360;18.742;2022-09-09T15:05:01;10.90;;;3.70;;
55190;SDS011;41070;50.360;18.742;2022-09-09T15:07:41;2.00;;;1.40;;
55190;SDS011;41070;50.360;18.742;2022-09-09T15:10:17;5.10;;;2.40;;
55190;SDS011;41070;50.360;18.742;2022-09-09T15:19:11;3.90;;;2.00;;
55190;SDS011;41070;50.360;18.742;2022-09-09T15:21:53;3.90;;;1.80;;
55190;SDS011;41070;50.360;18.742;2022-09-09T15:27:16;2.90;;;1.30;;
55190;SDS011;41070;50.360;18.742;2022-09-09T15:29:53;5.10;;;2.40;;
55190;SDS011;41070;50.360;18.742;2022-09-09T15:32:38;7.30;;;2.90;;
55190;SDS011;41070;50.360;18.742;2022-09-09T15:35:39;6.10;;;2.60;;
55190;SDS011;41070;50.360;18.742;2022-09-09T15:38:24;3.50;;;1.80;;
55190;SDS011;41070;50.360;18.742;2022-09-09T15:41:05;2.00;;;1.40;;
55190;SDS011;41070;50.360;18.742;2022-09-09T15:43:37;1.90;;;1.20;;
55190;SDS011;41070;50.360;18.742;2022-09-09T15:46:49;1.70;;;1.30;;
55190;SDS011;41070;50.360;18.742;2022-09-09T15:49:04;2.50;;;1.80;;
55190;SDS011;41070;50.360;18.742;2022-09-09T15:51:37;2.00;;;1.70;;
55190;SDS011;41070;50.360;18.742;2022-09-09T15:54:17;4.80;;;2.70;;
55190;SDS011;41070;50.360;18.742;2022-09-09T15:56:54;4.00;;;2.30;;
55190;SDS011;41070;50.360;18.742;2022-09-09T15:59:24;3.80;;;2.20;;
55190;SDS011;41070;50.360;18.742;2022-09-09T16:01:57;4.60;;;2.30;;
55190;SDS011;41070;50.360;18.742;2022-09-09T16:04:27;5.60;;;2.40;;
55190;SDS011;41070;50.360;18.742;2022-09-09T16:06:57;5.30;;;2.70;;
55190;SDS011;41070;50.360;18.742;2022-09-09T16:09:31;5.60;;;2.40;;
55190;SDS011;41070;50.360;18.742;2022-09-09T16:12:00;5.10;;;2.30;;
55190;SDS011;41070;50.360;18.742;2022-09-09T16:14:32;2.50;;;2.00;;
55190;SDS011;41070;50.360;18.742;2022-09-09T16:17:05;5.40;;;2.00;;
55190;SDS011;41070;50.360;18.742;2022-09-09T16:19:33;3.20;;;1.80;;
55190;SDS011;41070;50.360;18.742;2022-09-09T16:22:01;2.90;;;1.90;;
55190;SDS011;41070;50.360;18.742;2022-09-09T16:24:30;2.60;;;1.70;;
55190;SDS011;41070;50.360;18.742;2022-09-09T16:26:58;7.80;;;2.50;;
55190;SDS011;41070;50.360;18.742;2022-09-09T16:29:26;9.90;;;2.60;;
55190;SDS011;41070;50.360;18.742;2022-09-09T16:31:53;5.20;;;2.10;;
55190;SDS011;41070;50.360;18.742;2022-09-09T16:34:21;6.80;;;2.20;;
55190;SDS011;41070;50.360;18.742;2022-09-09T16:36:49;3.50;;;1.70;;
55190;SDS011;41070;50.360;18.742;2022-09-09T16:39:18;6.80;;;1.80;;
55190;SDS011;41070;50.360;18.742;2022-09-09T16:41:48;2.60;;;1.70;;
55190;SDS011;41070;50.360;18.742;2022-09-09T16:44:18;2.70;;;1.80;;
55190;SDS011;41070;50.360;18.742;2022-09-09T16:46:46;6.90;;;1.90;;
55190;SDS011;41070;50.360;18.742;2022-09-09T16:49:17;5.80;;;2.40;;
55190;SDS011;41070;50.360;18.742;2022-09-09T16:51:49;5.40;;;2.00;;
55190;SDS011;41070;50.360;18.742;2022-09-09T16:54:19;6.70;;;2.20;;
55190;SDS011;41070;50.360;18.742;2022-09-09T16:56:49;7.10;;;2.60;;
55190;SDS011;41070;50.360;18.742;2022-09-09T16:59:19;8.80;;;2.20;;
55190;SDS011;41070;50.360;18.742;2022-09-09T17:02:10;6.20;;;2.40;;
55190;SDS011;41070;50.360;18.742;2022-09-09T17:04:38;6.20;;;2.20;;
55190;SDS011;41070;50.360;18.742;2022-09-09T17:07:06;4.00;;;1.90;;
55190;SDS011;41070;50.360;18.742;2022-09-09T17:09:54;8.10;;;3.10;;
55190;SDS011;41070;50.360;18.742;2022-09-09T17:12:22;3.40;;;1.70;;
55190;SDS011;41070;50.360;18.742;2022-09-09T17:14:58;7.20;;;2.10;;
55190;SDS011;41070;50.360;18.742;2022-09-09T17:17:31;5.20;;;1.80;;
55190;SDS011;41070;50.360;18.742;2022-09-09T17:19:59;3.30;;;2.20;;
55190;SDS011;41070;50.360;18.742;2022-09-09T17:22:28;5.60;;;2.30;;
55190;SDS011;41070;50.360;18.742;2022-09-09T17:24:59;4.10;;;2.20;;
55190;SDS011;41070;50.360;18.742;2022-09-09T17:27:33;4.50;;;1.70;;
55190;SDS011;41070;50.360;18.742;2022-09-09T17:30:00;3.30;;;1.60;;
55190;SDS011;41070;50.360;18.742;2022-09-09T17:32:28;3.60;;;1.90;;
55190;SDS011;41070;50.360;18.742;2022-09-09T17:35:13;4.10;;;1.90;;
55190;SDS011;41070;50.360;18.742;2022-09-09T17:38:07;8.70;;;3.50;;
55190;SDS011;41070;50.360;18.742;2022-09-09T17:40:46;9.10;;;2.20;;
55190;SDS011;41070;50.360;18.742;2022-09-09T17:43:14;3.50;;;1.60;;
55190;SDS011;41070;50.360;18.742;2022-09-09T17:45:42;6.60;;;2.20;;
55190;SDS011;41070;50.360;18.742;2022-09-09T17:48:17;10.70;;;3.50;;
55190;SDS011;41070;50.360;18.742;2022-09-09T17:50:56;5.40;;;2.80;;
55190;SDS011;41070;50.360;18.742;2022-09-09T17:59:11;2.60;;;1.90;;
55190;SDS011;41070;50.360;18.742;2022-09-09T18:01:51;3.00;;;1.90;;
55190;SDS011;41070;50.360;18.742;2022-09-09T18:04:52;3.50;;;2.00;;
55190;SDS011;41070;50.360;18.742;2022-09-09T18:07:26;3.50;;;1.90;;
55190;SDS011;41070;50.360;18.742;2022-09-09T18:10:17;4.60;;;2.60;;
55190;SDS011;41070;50.360;18.742;2022-09-09T18:12:44;5.80;;;3.40;;
55190;SDS011;41070;50.360;18.742;2022-09-09T18:15:52;7.10;;;3.60;;
55190;SDS011;41070;50.360;18.742;2022-09-09T18:18:21;7.00;;;3.30;;
55190;SDS011;41070;50.360;18.742;2022-09-09T18:21:02;5.00;;;3.60;;
55190;SDS011;41070;50.360;18.742;2022-09-09T18:24:03;5.00;;;3.30;;
55190;SDS011;41070;50.360;18.742;2022-09-09T18:26:40;4.10;;;3.30;;
55190;SDS011;41070;50.360;18.742;2022-09-09T18:29:34;4.80;;;3.60;;